Time;durP1;ratioP1;P1;durP2;ratioP2;P2;SDS_P1;SDS_P2;PMS_P1;PMS_P2;Temp;Humidity;BMP_temperature;BMP_pressure;BME280_temperature;BME280_humidity;BME280_pressure;Samples;Min_cycle;Max_cycle;Signal;HPM_P1;HPM_P2
2023/11/09 00:00:21;;;;;;;13.52;10.30;;;6.50;99.90;;;;;;5052426;28;20029;-57
2023/11/09 00:02:48;;;;;;;12.95;9.35;;;;;;;;;;5052099;28;20021;-56
2023/11/09 00:05:14;;;;;;;14.00;10.60;;;;;;;;;;5051889;28;20080;-56
2023/11/09 00:07:41;;;;;;;13.63;10.82;;;;;;;;;;5051906;28;20028;-56
2023/11/09 00:10:08;;;;;;;15.18;10.73;;;;;;;;;;5052080;28;20036;-56
2023/11/09 00:12:34;;;;;;;15.30;11.07;;;8.00;99.90;;;;;;5051646;28;20033;-55
2023/11/09 00:15:00;;;;;;;8.85;6.35;;;7.90;99.90;;;;;;5052129;28;20039;-53
2023/11/09 00:17:26;;;;;;;8.32;6.05;;;;;;;;;;5016521;28;20041;-53
2023/11/09 00:19:52;;;;;;;8.02;5.05;;;7.60;99.90;;;;;;5051876;28;20033;-56
2023/11/09 00:22:19;;;;;;;8.82;5.75;;;;;;;;;;5051601;28;20033;-53
2023/11/09 00:24:47;;;;;;;10.10;5.45;;;;;;;;;;5051691;28;20104;-53
2023/11/09 00:27:19;;;;;;;7.75;5.60;;;;;;;;;;5051791;28;20546;-56
2023/11/09 00:29:45;;;;;;;6.78;4.63;;;;;;;;;;5051608;28;20029;-54
2023/11/09 00:32:11;;;;;;;5.82;4.45;;;6.40;99.90;;;;;;5051700;28;20052;-55
2023/11/09 00:34:38;;;;;;;6.97;3.80;;;;;;;;;;5051401;28;20040;-55
2023/11/09 00:37:04;;;;;;;7.35;5.13;;;;;;;;;;5051557;28;20048;-56
2023/11/09 00:39:31;;;;;;;7.95;4.78;;;;;;;;;;5051843;28;20029;-55
2023/11/09 00:41:57;;;;;;;8.70;5.75;;;6.10;99.90;;;;;;5051668;28;20025;-54
2023/11/09 00:44:22;;;;;;;6.45;4.75;;;6.20;99.90;;;;;;5051564;28;20029;-55
2023/11/09 00:46:48;;;;;;;8.90;5.15;;;6.30;99.90;;;;;;5051524;28;20481;-55
2023/11/09 00:49:15;;;;;;;6.70;4.57;;;6.40;99.90;;;;;;5051486;28;20037;-55
2023/11/09 00:51:41;;;;;;;8.30;5.13;;;6.50;99.90;;;;;;5051561;28;20045;-55
2023/11/09 00:54:07;;;;;;;8.52;6.07;;;6.60;99.90;;;;;;5051546;28;20066;-55
2023/11/09 00:56:34;;;;;;;8.48;5.85;;;;;;;;;;5051449;28;20044;-55
2023/11/09 00:58:59;;;;;;;8.55;5.65;;;6.40;99.90;;;;;;5051619;28;20122;-55
2023/11/09 01:01:25;;;;;;;8.02;5.63;;;6.20;99.90;;;;;;5051465;28;20447;-55
2023/11/09 01:03:52;;;;;;;8.63;4.82;;;6.10;99.90;;;;;;5051371;28;20067;-54
2023/11/09 01:06:18;;;;;;;5.85;4.70;;;6.20;99.90;;;;;;5051425;28;20053;-55
2023/11/09 01:08:44;;;;;;;5.93;4.22;;;;;;;;;;5051292;28;20029;-56
2023/11/09 01:11:10;;;;;;;4.93;3.88;;;;;;;;;;5051657;28;20033;-55
2023/11/09 01:13:36;;;;;;;5.35;3.60;;;6.40;99.90;;;;;;5031879;28;20033;-56
2023/11/09 01:16:02;;;;;;;6.30;4.20;;;6.30;99.90;;;;;;4996356;28;20549;-56
2023/11/09 01:18:31;;;;;;;6.40;3.85;;;6.30;99.90;;;;;;5031505;28;20098;-56
2023/11/09 01:20:57;;;;;;;6.20;4.90;;;6.30;99.90;;;;;;5031313;28;20037;-55
2023/11/09 01:23:23;;;;;;;5.65;4.90;;;6.00;99.90;;;;;;5031373;28;20124;-55
2023/11/09 01:25:49;;;;;;;7.28;4.65;;;5.90;99.90;;;;;;5031261;28;20033;-55
2023/11/09 01:28:15;;;;;;;6.82;4.47;;;5.70;99.90;;;;;;5031282;28;20057;-55
2023/11/09 01:30:41;;;;;;;3.97;3.08;;;5.80;99.90;;;;;;5031312;28;20042;-55
2023/11/09 01:33:07;;;;;;;5.32;3.45;;;5.80;99.90;;;;;;5032607;28;20469;-55
2023/11/09 01:35:32;;;;;;;6.68;3.83;;;5.90;99.90;;;;;;5034919;28;20029;-54
2023/11/09 01:37:58;;;;;;;5.53;3.65;;;6.00;99.90;;;;;;5034839;28;20045;-56
2023/11/09 01:40:24;;;;;;;6.43;4.20;;;6.00;99.90;;;;;;5018418;28;20041;-55
2023/11/09 01:42:51;;;;;;;5.72;4.00;;;5.80;99.90;;;;;;4986389;28;20041;-55
2023/11/09 01:45:17;;;;;;;4.55;3.70;;;5.60;99.90;;;;;;5054621;28;20025;-54
2023/11/09 01:47:42;;;;;;;4.80;3.22;;;5.40;99.90;;;;;;5054516;28;20043;-56
2023/11/09 01:50:11;;;;;;;5.18;3.83;;;5.40;99.90;;;;;;5054391;28;20064;-55
2023/11/09 01:52:38;;;;;;;5.70;3.78;;;5.30;99.90;;;;;;5054394;28;20109;-55
2023/11/09 01:55:04;;;;;;;5.22;3.20;;;5.30;99.90;;;;;;5054623;28;20028;-55
2023/11/09 01:57:31;;;;;;;4.95;3.75;;;;;;;;;;5054410;28;20017;-55
2023/11/09 01:59:57;;;;;;;4.35;3.33;;;;;;;;;;5053238;28;20112;-55
2023/11/09 02:02:23;;;;;;;5.90;4.13;;;;;;;;;;5054602;28;20033;-55
2023/11/09 02:04:50;;;;;;;5.95;3.67;;;;;;;;;;5035065;28;20565;-56
2023/11/09 02:07:18;;;;;;;4.38;3.40;;;;;;;;;;5054335;28;20064;-55
2023/11/09 02:09:44;;;;;;;6.05;3.67;;;5.30;99.90;;;;;;5054387;28;20083;-54
2023/11/09 02:12:10;;;;;;;5.63;3.95;;;5.40;99.90;;;;;;5054098;28;20086;-56
2023/11/09 02:14:36;;;;;;;5.18;3.40;;;5.40;99.90;;;;;;5035282;28;20435;-55
2023/11/09 02:17:03;;;;;;;5.18;4.38;;;5.40;99.90;;;;;;5053780;28;20120;-56
2023/11/09 02:19:30;;;;;;;6.45;4.30;;;5.40;99.90;;;;;;5053929;28;20495;-55
2023/11/09 02:21:59;;;;;;;4.82;4.20;;;5.60;99.90;;;;;;5018628;28;20045;-55
2023/11/09 02:24:26;;;;;;;5.97;3.97;;;5.60;99.90;;;;;;5035149;28;20064;-55
2023/11/09 02:26:53;;;;;;;4.57;3.63;;;5.70;99.90;;;;;;5053736;28;20124;-55
2023/11/09 02:29:22;;;;;;;4.70;3.65;;;5.70;99.90;;;;;;5053674;28;20033;-55
2023/11/09 02:31:48;;;;;;;5.55;4.05;;;5.70;99.90;;;;;;5053738;28;20057;-55
2023/11/09 02:34:18;;;;;;;6.72;4.10;;;5.70;99.90;;;;;;5053651;28;20076;-55
2023/11/09 02:36:44;;;;;;;5.82;4.85;;;5.70;99.90;;;;;;5053858;28;20104;-56
2023/11/09 02:39:12;;;;;;;8.27;5.78;;;5.70;99.90;;;;;;5048469;28;20113;-56
2023/11/09 02:41:38;;;;;;;6.78;5.55;;;5.50;99.90;;;;;;5053358;28;20078;-55
2023/11/09 02:44:05;;;;;;;7.30;5.07;;;5.40;99.90;;;;;;5052890;28;20066;-56
2023/11/09 02:46:32;;;;;;;5.32;3.70;;;5.40;99.90;;;;;;5034791;28;20037;-55
2023/11/09 02:48:58;;;;;;;6.43;4.57;;;5.50;99.90;;;;;;5053136;28;20040;-55
2023/11/09 02:51:24;;;;;;;4.28;3.40;;;5.60;99.90;;;;;;5018265;28;20400;-55
2023/11/09 02:53:49;;;;;;;5.10;3.17;;;5.50;99.90;;;;;;5017822;28;20048;-55
2023/11/09 02:56:15;;;;;;;5.40;3.70;;;5.50;99.90;;;;;;5053231;28;20054;-55
2023/11/09 02:58:45;;;;;;;5.38;3.70;;;;;;;;;;5053230;28;20377;-55
2023/11/09 03:01:11;;;;;;;5.65;3.92;;;;;;;;;;5053436;28;20375;-55
2023/11/09 03:03:36;;;;;;;5.40;3.78;;;5.40;99.90;;;;;;5053142;28;20021;-56
2023/11/09 03:06:03;;;;;;;4.20;3.28;;;5.50;99.90;;;;;;5052894;28;20480;-55
2023/11/09 03:08:29;;;;;;;6.03;3.88;;;5.30;99.90;;;;;;4985113;28;20048;-54
2023/11/09 03:10:54;;;;;;;5.07;3.70;;;5.30;99.90;;;;;;5053164;28;20443;-55
2023/11/09 03:13:21;;;;;;;5.10;3.70;;;5.70;99.90;;;;;;5052821;28;20041;-55
2023/11/09 03:15:48;;;;;;;5.63;4.05;;;5.50;99.90;;;;;;5053185;28;20060;-55
2023/11/09 03:18:14;;;;;;;6.40;3.72;;;5.50;99.90;;;;;;5017148;28;20122;-55
2023/11/09 03:20:41;;;;;;;4.95;4.10;;;5.70;99.90;;;;;;5034183;28;20480;-56
2023/11/09 03:23:10;;;;;;;6.82;3.78;;;5.60;99.90;;;;;;5053114;28;20102;-55
2023/11/09 03:25:38;;;;;;;9.98;4.03;;;;;;;;;;5052857;28;20619;-55
2023/11/09 03:28:05;;;;;;;7.05;5.05;;;;;;;;;;5052645;28;20115;-56
2023/11/09 03:30:30;;;;;;;6.75;4.40;;;5.10;99.90;;;;;;5052950;28;20041;-55
2023/11/09 03:32:57;;;;;;;5.95;4.30;;;5.00;99.90;;;;;;5052594;28;20053;-55
2023/11/09 03:35:23;;;;;;;5.72;4.43;;;5.00;99.90;;;;;;5033616;28;20120;-55
2023/11/09 03:37:49;;;;;;;6.43;4.88;;;4.90;99.90;;;;;;5052412;28;20021;-56
2023/11/09 03:40:15;;;;;;;5.90;4.18;;;4.80;99.90;;;;;;5052598;28;20083;-55
2023/11/09 03:42:40;;;;;;;7.05;4.30;;;4.80;99.90;;;;;;5052738;28;20640;-55
2023/11/09 03:45:08;;;;;;;7.18;4.50;;;4.90;99.90;;;;;;5017380;28;20049;-55
2023/11/09 03:47:33;;;;;;;5.78;4.65;;;5.00;99.90;;;;;;5052241;28;20540;-55
2023/11/09 03:49:59;;;;;;;6.10;4.10;;;5.10;99.90;;;;;;5017003;28;20124;-55
2023/11/09 03:52:27;;;;;;;5.72;4.28;;;5.10;99.90;;;;;;5052158;28;20040;-55
2023/11/09 03:54:54;;;;;;;6.22;4.15;;;5.10;99.90;;;;;;5052228;28;20404;-55
2023/11/09 03:57:21;;;;;;;5.78;4.20;;;5.20;99.90;;;;;;5051412;28;20033;-55
2023/11/09 03:59:47;;;;;;;7.07;4.80;;;5.20;99.90;;;;;;5052230;28;20033;-55
2023/11/09 04:02:13;;;;;;;5.65;4.30;;;5.20;99.90;;;;;;5052052;28;20033;-55
2023/11/09 04:04:38;;;;;;;7.65;4.53;;;5.10;99.90;;;;;;5051761;28;20074;-56
2023/11/09 04:07:04;;;;;;;5.80;4.25;;;5.00;99.90;;;;;;5052194;28;20480;-55
2023/11/09 04:09:30;;;;;;;7.97;4.78;;;5.20;99.90;;;;;;5051979;28;20037;-55
2023/11/09 04:11:56;;;;;;;6.57;4.97;;;5.20;99.90;;;;;;5016804;28;20051;-55
2023/11/09 04:14:21;;;;;;;8.32;5.38;;;5.40;99.90;;;;;;5051819;28;20047;-55
2023/11/09 04:16:47;;;;;;;5.70;4.40;;;5.30;99.90;;;;;;5051917;28;20380;-55
2023/11/09 04:19:16;;;;;;;6.13;4.20;;;5.20;99.90;;;;;;5052004;28;20048;-55
2023/11/09 04:21:42;;;;;;;6.78;5.15;;;5.00;99.90;;;;;;5051620;28;20041;-55
2023/11/09 04:24:08;;;;;;;6.47;4.80;;;5.00;99.90;;;;;;5051919;28;20116;-55
2023/11/09 04:26:33;;;;;;;6.80;5.15;;;4.70;99.90;;;;;;5016538;28;20124;-55
2023/11/09 04:29:01;;;;;;;11.85;6.03;;;4.60;99.90;;;;;;5051887;28;20427;-56
2023/11/09 04:31:28;;;;;;;10.32;5.60;;;4.60;99.90;;;;;;5016380;28;20040;-55
2023/11/09 04:34:02;;;;;;;9.18;5.07;;;4.60;99.90;;;;;;5051632;28;20468;-54
2023/11/09 04:36:27;;;;;;;6.70;4.72;;;4.30;99.90;;;;;;5051557;28;20033;-55
2023/11/09 04:38:53;;;;;;;6.68;4.80;;;;;;;;;;5051608;28;20025;-55
2023/11/09 04:41:21;;;;;;;6.13;3.97;;;4.10;99.90;;;;;;5051776;28;20033;-55
2023/11/09 04:43:47;;;;;;;6.10;4.13;;;4.10;99.90;;;;;;5051573;28;20041;-54
2023/11/09 04:46:18;;;;;;;6.97;3.80;;;4.00;99.90;;;;;;5051752;28;20029;-54
2023/11/09 04:48:44;;;;;;;5.28;4.00;;;4.00;99.90;;;;;;5051790;28;20673;-55
2023/11/09 04:51:20;;;;;;;5.18;4.20;;;;;;;;;;5044606;28;20103;-55
2023/11/09 04:53:50;;;;;;;5.57;3.65;;;;;;;;;;5031537;28;20053;-55
2023/11/09 05:06:48;;;;;;;6.65;3.13;;;3.70;99.90;;;;;;4988700;28;20044;-56
2023/11/09 05:07:17;;;;;;;5.55;3.95;;;3.70;99.90;;;;;;5032199;28;20132;-56
2023/11/09 05:09:46;;;;;;;8.15;4.43;;;3.80;99.90;;;;;;5035331;28;20120;-56
2023/11/09 05:12:13;;;;;;;5.55;3.90;;;3.80;99.90;;;;;;5052137;28;20033;-55
2023/11/09 05:14:39;;;;;;;6.43;3.63;;;3.80;99.90;;;;;;5055521;28;20037;-56
2023/11/09 05:17:05;;;;;;;6.78;4.05;;;3.90;99.90;;;;;;5054584;28;20083;-56
2023/11/09 05:19:30;;;;;;;8.63;5.63;;;3.80;99.90;;;;;;5055024;28;20041;-56
2023/11/09 05:21:57;;;;;;;8.80;4.40;;;4.00;99.90;;;;;;5033376;28;20040;-55
2023/11/09 05:24:23;;;;;;;25.65;15.65;;;4.30;99.90;;;;;;5036068;28;20044;-55
2023/11/09 05:26:51;;;;;;;12.88;6.10;;;4.20;99.90;;;;;;5054601;28;20021;-55
2023/11/09 05:29:18;;;;;;;10.15;6.10;;;4.10;99.90;;;;;;5054037;28;20033;-54
2023/11/09 05:31:44;;;;;;;8.55;5.32;;;4.10;99.90;;;;;;5054837;28;20044;-55
2023/11/09 05:34:11;;;;;;;8.95;6.50;;;4.00;99.90;;;;;;5054448;28;20121;-56
2023/11/09 05:36:37;;;;;;;6.80;4.90;;;4.00;99.90;;;;;;5008896;28;20048;-55
2023/11/09 05:39:10;;;;;;;9.00;5.35;;;4.00;99.90;;;;;;5053944;28;20139;-55
2023/11/09 05:41:36;;;;;;;8.48;6.57;;;4.10;99.90;;;;;;5004764;28;20036;-55
2023/11/09 05:44:02;;;;;;;16.15;9.23;;;4.20;99.90;;;;;;5053626;28;20134;-55
2023/11/09 05:46:28;;;;;;;9.70;7.95;;;4.10;99.90;;;;;;4989810;28;20074;-57
2023/11/09 05:48:54;;;;;;;10.65;5.63;;;4.00;99.90;;;;;;4991620;28;20458;-56
2023/11/09 05:51:23;;;;;;;8.23;5.15;;;4.00;99.90;;;;;;4991842;28;20121;-54
2023/11/09 05:53:50;;;;;;;8.40;5.45;;;4.00;99.90;;;;;;4991446;28;20454;-55
2023/11/09 05:56:17;;;;;;;5.97;4.63;;;4.00;99.90;;;;;;4967987;28;20038;-55
2023/11/09 05:58:43;;;;;;;5.20;3.80;;;4.00;99.90;;;;;;4989525;28;20034;-55
2023/11/09 06:01:10;;;;;;;11.30;5.72;;;4.10;99.90;;;;;;4991624;28;20762;-55
2023/11/09 06:03:36;;;;;;;5.03;3.67;;;4.50;99.90;;;;;;4992663;28;20035;-56
2023/11/09 06:06:02;;;;;;;7.43;4.60;;;6.20;99.90;;;;;;4992400;28;20061;-55
2023/11/09 06:08:28;;;;;;;6.18;5.50;;;;;;;;;;4992562;28;20031;-55
2023/11/09 06:10:53;;;;;;;6.10;4.40;;;9.00;99.90;;;;;;4992375;28;20433;-56
2023/11/09 06:13:19;;;;;;;5.90;3.80;;;;;;;;;;4992555;28;20080;-56
2023/11/09 06:15:46;;;;;;;5.53;4.20;;;;;;;;;;4992501;28;20132;-57
2023/11/09 06:18:13;;;;;;;5.55;4.22;;;;;;;;;;5033224;28;20045;-56
2023/11/09 06:20:39;;;;;;;5.45;4.25;;;;;;;;;;5045257;28;20029;-55
2023/11/09 06:23:05;;;;;;;6.05;4.43;;;16.50;99.90;;;;;;5039284;28;20088;-55
2023/11/09 06:25:31;;;;;;;5.95;4.63;;;;;;;;;;4998936;28;20296;-56
2023/11/09 06:27:57;;;;;;;6.60;4.68;;;;;;;;;;5034256;28;20477;-56
2023/11/09 06:30:27;;;;;;;6.18;5.28;;;17.20;97.40;;;;;;5033909;28;20036;-56
2023/11/09 06:32:53;;;;;;;7.53;5.28;;;;;;;;;;5033835;28;20041;-56
2023/11/09 06:35:19;;;;;;;11.48;7.13;;;19.50;94.20;;;;;;5037398;28;20033;-56
2023/11/09 06:37:45;;;;;;;12.23;8.95;;;18.20;92.80;;;;;;5033757;28;20378;-56
2023/11/09 06:40:16;;;;;;;10.98;7.18;;;;;;;;;;4990492;28;20041;-56
2023/11/09 06:42:43;;;;;;;7.45;5.97;;;17.80;92.90;;;;;;5053507;28;20468;-55
2023/11/09 06:45:09;;;;;;;9.32;6.60;;;17.60;93.00;;;;;;5053919;28;20375;-56
2023/11/09 06:47:37;;;;;;;7.18;5.40;;;19.60;92.40;;;;;;5053621;28;20047;-56
2023/11/09 06:50:05;;;;;;;23.77;16.38;;;22.10;91.60;;;;;;5053480;28;20116;-56
2023/11/09 06:52:31;;;;;;;30.33;18.73;;;;;;;;;;4954274;28;20041;-56
2023/11/09 06:54:57;;;;;;;20.15;14.07;;;;;;;;;;5053366;28;20036;-56
2023/11/09 06:57:24;;;;;;;16.92;13.02;;;;;;;;;;5053297;28;20107;-56
2023/11/09 06:59:50;;;;;;;10.40;8.20;;;;;;;;;;5002413;28;20041;-54
2023/11/09 07:02:17;;;;;;;6.60;5.90;;;;;;;;;;5053215;28;20060;-54
2023/11/09 07:04:43;;;;;;;6.05;4.75;;;25.60;83.00;;;;;;5052909;28;20056;-54
2023/11/09 07:07:10;;;;;;;5.22;4.72;;;;;;;;;;5041295;28;20033;-54
2023/11/09 07:09:36;;;;;;;7.05;4.88;;;24.60;81.70;;;;;;5033187;28;20512;-54
2023/11/09 07:12:02;;;;;;;7.72;5.45;;;22.90;82.60;;;;;;5033212;28;20120;-55
2023/11/09 07:14:28;;;;;;;6.68;5.90;;;;;;;;;;5032980;28;20038;-55
2023/11/09 07:16:54;;;;;;;7.65;6.07;;;;;;;;;;5033060;28;20064;-55
2023/11/09 07:19:22;;;;;;;9.57;7.47;;;23.20;99.90;;;;;;5032887;28;20088;-55
2023/11/09 07:21:49;;;;;;;9.10;6.32;;;;;;;;;;5033072;28;20496;-55
2023/11/09 07:24:17;;;;;;;7.57;5.57;;;22.70;94.90;;;;;;5032902;28;20029;-55
2023/11/09 07:26:43;;;;;;;8.38;6.22;;;;;;;;;;5032901;28;20033;-55
2023/11/09 07:29:10;;;;;;;7.82;6.68;;;;;;;;;;5032847;28;20038;-56
2023/11/09 07:31:36;;;;;;;6.90;5.97;;;;;;;;;;5032748;28;20367;-56
2023/11/09 07:34:02;;;;;;;9.25;7.82;;;;;;;;;;5032610;28;20488;-54
2023/11/09 07:36:28;;;;;;;8.25;7.15;;;25.70;82.50;;;;;;5032643;28;20029;-56
2023/11/09 07:38:54;;;;;;;8.43;7.63;;;;;;;;;;5032591;28;20103;-55
2023/11/09 07:41:25;;;;;;;7.32;6.47;;;;;;;;;;5032649;28;20036;-54
2023/11/09 07:43:52;;;;;;;7.72;6.78;;;25.40;99.90;;;;;;5032439;28;20040;-55
2023/11/09 07:46:18;;;;;;;5.97;5.13;;;;;;;;;;5032448;28;20120;-56
2023/11/09 07:48:44;;;;;;;5.95;5.35;;;;;;;;;;5040718;28;20029;-56
2023/11/09 07:51:10;;;;;;;7.82;7.13;;;;;;;;;;5021030;28;20044;-55
2023/11/09 07:53:36;;;;;;;8.55;6.47;;;;;;;;;;5051584;28;20120;-57
2023/11/09 07:56:02;;;;;;;11.27;10.20;;;28.70;79.70;;;;;;5032331;28;20048;-56
2023/11/09 07:58:28;;;;;;;7.65;6.85;;;27.30;77.70;;;;;;5051939;28;20091;-56
2023/11/09 08:00:54;;;;;;;7.90;7.20;;;28.60;78.90;;;;;;5050230;28;20508;-56
2023/11/09 08:03:20;;;;;;;6.60;6.03;;;;;;;;;;5050118;28;20024;-57
2023/11/09 08:05:47;;;;;;;7.25;6.55;;;28.30;90.50;;;;;;5051787;28;20047;-56
2023/11/09 08:08:14;;;;;;;6.28;5.50;;;26.00;76.90;;;;;;5051936;28;20037;-56
2023/11/09 08:10:43;;;;;;;7.50;5.10;;;;;;;;;;5052170;28;20056;-56
2023/11/09 08:13:09;;;;;;;6.55;5.63;;;;;;;;;;5052340;28;20086;-56
2023/11/09 08:15:35;;;;;;;7.68;5.28;;;29.10;87.40;;;;;;5052108;28;20029;-56
2023/11/09 08:18:02;;;;;;;7.07;5.35;;;;;;;;;;5051923;28;20473;-56
2023/11/09 08:20:29;;;;;;;6.55;5.85;;;29.00;87.20;;;;;;5044276;28;20056;-61
2023/11/09 08:22:56;;;;;;;6.53;5.90;;;26.90;76.40;;;;;;5047735;28;20495;-55
2023/11/09 08:25:23;;;;;;;6.80;5.80;;;25.30;77.30;;;;;;5051321;28;20565;-55
2023/11/09 08:27:51;;;;;;;32.72;30.48;;;;;;;;;;5051792;28;20048;-55
2023/11/09 08:30:19;;;;;;;7.47;5.50;;;28.20;76.90;;;;;;5051992;28;20124;-55
2023/11/09 08:32:47;;;;;;;6.97;6.10;;;;;;;;;;5050526;28;20185;-55
2023/11/09 08:35:17;;;;;;;7.65;5.20;;;;;;;;;;5051741;28;20064;-55
2023/11/09 08:37:44;;;;;;;6.57;5.60;;;28.80;76.30;;;;;;5051849;28;20037;-55
2023/11/09 08:40:17;;;;;;;5.85;5.10;;;28.70;80.90;;;;;;5052034;28;20445;-55
2023/11/09 08:42:48;;;;;;;5.78;5.13;;;28.20;77.30;;;;;;5052854;28;20485;-55
2023/11/09 08:45:14;;;;;;;9.95;6.07;;;;;;;;;;5056238;28;20059;-55
2023/11/09 08:47:40;;;;;;;6.07;4.88;;;;;;;;;;5055747;28;20043;-55
2023/11/09 08:50:08;;;;;;;6.65;6.05;;;28.40;76.30;;;;;;5055666;28;20380;-55
2023/11/09 08:52:35;;;;;;;6.45;5.85;;;25.50;77.70;;;;;;5020896;28;20052;-54
2023/11/09 08:55:04;;;;;;;5.70;5.20;;;25.80;78.10;;;;;;5055787;28;20614;-55
2023/11/09 08:57:32;;;;;;;7.05;5.63;;;26.30;78.50;;;;;;5055596;28;20040;-55
2023/11/09 09:00:00;;;;;;;7.20;5.40;;;25.80;79.60;;;;;;5055545;28;20116;-55
2023/11/09 09:02:29;;;;;;;5.82;5.32;;;;;;;;;;5055421;28;20037;-56
2023/11/09 09:04:56;;;;;;;5.38;4.88;;;;;;;;;;5055453;28;20052;-55
2023/11/09 09:07:22;;;;;;;5.80;5.30;;;;;;;;;;5055532;28;20116;-55
2023/11/09 09:09:48;;;;;;;6.72;5.47;;;;;;;;;;5053297;28;20095;-54
2023/11/09 09:12:18;;;;;;;5.20;4.80;;;28.30;95.00;;;;;;5055344;28;20094;-55
2023/11/09 09:14:46;;;;;;;6.80;6.20;;;28.30;78.00;;;;;;5054943;28;20069;-55
2023/11/09 09:17:12;;;;;;;7.28;6.70;;;28.30;77.70;;;;;;5055598;28;20110;-54
2023/11/09 09:19:38;;;;;;;6.22;5.72;;;26.80;76.30;;;;;;5053944;28;20037;-55
2023/11/09 09:22:05;;;;;;;6.75;6.25;;;;;;;;;;5055501;28;20084;-54
2023/11/09 09:24:31;;;;;;;6.10;5.50;;;25.80;77.50;;;;;;5055483;28;20057;-54
2023/11/09 09:26:58;;;;;;;6.30;5.70;;;;;;;;;;5055250;28;20029;-54
2023/11/09 09:29:27;;;;;;;8.80;8.00;;;25.40;78.70;;;;;;5050670;28;20021;-54
2023/11/09 09:31:56;;;;;;;6.22;5.63;;;;;;;;;;5034895;28;20044;-54
2023/11/09 09:34:25;;;;;;;6.43;5.82;;;25.30;79.40;;;;;;5040144;28;20087;-54
2023/11/09 09:36:51;;;;;;;5.90;5.40;;;25.50;79.30;;;;;;5054425;28;20032;-54
2023/11/09 09:39:37;;;;;;;7.25;5.63;;;;;;;;;;5012515;28;20459;-54
2023/11/09 09:42:04;;;;;;;6.13;5.55;;;;;;;;;;5012688;28;20129;-54
2023/11/09 09:44:31;;;;;;;8.32;6.72;;;27.70;78.20;;;;;;5012526;28;20062;-54
2023/11/09 09:46:59;;;;;;;6.45;5.85;;;27.20;78.10;;;;;;5008957;28;20084;-55
2023/11/09 09:49:25;;;;;;;5.78;5.32;;;26.70;77.40;;;;;;4979443;28;20112;-54
2023/11/09 09:51:54;;;;;;;6.18;5.57;;;26.40;77.70;;;;;;5012415;28;20527;-55
2023/11/09 09:54:20;;;;;;;12.70;10.07;;;26.20;77.80;;;;;;5010628;28;20057;-54
2023/11/09 09:56:47;;;;;;;9.52;6.95;;;;;;;;;;5012241;28;20486;-54
2023/11/09 09:59:14;;;;;;;9.35;8.38;;;28.00;78.40;;;;;;5009435;28;20117;-55
2023/11/09 10:01:47;;;;;;;12.80;11.50;;;26.60;78.40;;;;;;5012161;28;20489;-54
2023/11/09 10:04:14;;;;;;;7.43;6.00;;;;;;;;;;5011927;28;20026;-54
2023/11/09 10:06:41;;;;;;;6.68;5.75;;;;;;;;;;5012155;28;20030;-55
2023/11/09 10:09:08;;;;;;;5.25;4.75;;;;;;;;;;5012219;28;20030;-55
2023/11/09 10:11:37;;;;;;;7.55;5.63;;;27.30;77.40;;;;;;5049727;28;20040;-55
2023/11/09 10:14:04;;;;;;;5.70;5.20;;;;;;;;;;5011856;28;20068;-55
2023/11/09 10:16:33;;;;;;;4.75;4.35;;;29.10;78.00;;;;;;5012073;28;20393;-55
2023/11/09 10:19:02;;;;;;;6.28;5.35;;;26.90;76.90;;;;;;5011852;28;20038;-54
2023/11/09 10:21:32;;;;;;;6.20;5.28;;;27.60;77.30;;;;;;5011989;28;20061;-54
2023/11/09 10:24:01;;;;;;;10.70;9.68;;;27.80;77.40;;;;;;4978929;28;20449;-54
2023/11/09 10:26:40;;;;;;;8.73;6.88;;;;;;;;;;5011796;28;20184;-54
2023/11/09 10:29:17;;;;;;;9.27;5.75;;;27.30;98.20;;;;;;5011816;28;20045;-54
2023/11/09 10:31:44;;;;;;;5.15;4.22;;;26.90;78.50;;;;;;5010667;28;20045;-54
2023/11/09 10:34:11;;;;;;;6.88;6.20;;;;;;;;;;5009465;28;20062;-54
2023/11/09 10:36:41;;;;;;;6.00;4.50;;;;;;;;;;5011181;28;20669;-54
2023/11/09 10:39:22;;;;;;;7.15;6.43;;;28.60;97.80;;;;;;5010019;28;20045;-54
2023/11/09 10:41:49;;;;;;;6.68;5.47;;;28.70;77.30;;;;;;5010009;28;20073;-54
2023/11/09 10:44:22;;;;;;;5.63;4.95;;;;;;;;;;5018353;28;20029;-54
2023/11/09 10:46:53;;;;;;;9.27;7.28;;;28.80;76.90;;;;;;5050004;28;20032;-54
2023/11/09 10:49:23;;;;;;;9.07;6.57;;;;;;;;;;5017658;28;20045;-55
2023/11/09 10:51:54;;;;;;;6.35;5.22;;;28.70;75.60;;;;;;5053578;28;20157;-54
2023/11/09 10:54:24;;;;;;;4.28;3.88;;;27.50;76.60;;;;;;4991549;28;20066;-54
2023/11/09 10:56:51;;;;;;;5.30;4.80;;;;;;;;;;4991372;28;20042;-54
2023/11/09 10:59:20;;;;;;;5.68;4.43;;;28.80;75.90;;;;;;4991315;28;20051;-54
2023/11/09 11:01:53;;;;;;;8.25;5.90;;;28.30;76.00;;;;;;4991394;28;20513;-54
2023/11/09 11:04:20;;;;;;;5.53;4.32;;;;;;;;;;4990930;28;20171;-54
2023/11/09 11:06:51;;;;;;;5.65;4.43;;;27.70;76.00;;;;;;4990720;28;20118;-54
2023/11/09 11:09:26;;;;;;;5.30;4.70;;;;;;;;;;4991431;28;20049;-54
2023/11/09 11:11:55;;;;;;;5.63;5.00;;;;;;;;;;4991035;28;20035;-54
2023/11/09 11:14:25;;;;;;;7.70;5.55;;;;;;;;;;4991317;28;20097;-54
2023/11/09 11:16:57;;;;;;;8.15;5.30;;;;;;;;;;4991141;28;20461;-54
2023/11/09 11:19:54;;;;;;;7.82;6.47;;;28.70;74.80;;;;;;4990591;28;20379;-54
2023/11/09 11:22:30;;;;;;;5.03;3.20;;;;;;;;;;4989891;28;20022;-54
2023/11/09 11:25:28;;;;;;;6.68;4.32;;;27.60;73.90;;;;;;5010269;28;20044;-55
2023/11/09 11:28:01;;;;;;;6.25;5.03;;;;;;;;;;5051038;28;20033;-54
2023/11/09 11:30:38;;;;;;;7.40;4.78;;;27.20;74.60;;;;;;5050532;28;20021;-54
2023/11/09 11:33:11;;;;;;;4.38;3.97;;;27.60;76.20;;;;;;4997869;28;20050;-55
2023/11/09 11:35:39;;;;;;;4.25;3.78;;;;;;;;;;4993914;28;20386;-54
2023/11/09 11:38:16;;;;;;;5.22;3.80;;;;;;;;;;4990787;28;20038;-54
2023/11/09 11:40:43;;;;;;;8.15;5.05;;;27.00;77.30;;;;;;4990886;28;20512;-54
2023/11/09 11:43:11;;;;;;;4.75;4.00;;;26.30;77.10;;;;;;4990752;28;20035;-54
2023/11/09 11:45:38;;;;;;;5.40;3.83;;;;;;;;;;4990874;28;20140;-54
2023/11/09 11:48:12;;;;;;;4.15;3.15;;;26.30;86.80;;;;;;4990600;28;20086;-54
2023/11/09 11:50:41;;;;;;;4.38;3.28;;;26.20;85.00;;;;;;4990824;28;20113;-54
2023/11/09 11:53:12;;;;;;;6.75;3.22;;;;;;;;;;4942161;28;20173;-54
2023/11/09 11:55:57;;;;;;;4.72;3.05;;;25.40;77.30;;;;;;4990693;28;20107;-54
2023/11/09 11:58:23;;;;;;;3.60;2.92;;;25.60;77.00;;;;;;4990261;28;20170;-54
2023/11/09 12:00:51;;;;;;;5.40;3.00;;;25.80;86.50;;;;;;4992290;28;20109;-54
2023/11/09 12:03:16;;;;;;;4.88;3.10;;;25.30;88.60;;;;;;5002896;28;20131;-54
2023/11/09 12:05:43;;;;;;;4.63;2.78;;;;;;;;;;5050098;28;20064;-54
2023/11/09 12:08:12;;;;;;;8.07;6.03;;;24.80;97.90;;;;;;5051075;28;20048;-53
2023/11/09 12:10:44;;;;;;;4.05;2.67;;;24.00;81.10;;;;;;5049598;28;20057;-55
2023/11/09 12:13:11;;;;;;;3.65;3.00;;;;;;;;;;5048006;28;20047;-54
2023/11/09 12:15:37;;;;;;;5.95;4.85;;;24.00;78.10;;;;;;5050731;28;20087;-53
2023/11/09 12:18:04;;;;;;;9.57;6.90;;;24.40;78.50;;;;;;5014080;28;20044;-54
2023/11/09 12:20:30;;;;;;;10.60;7.63;;;24.40;78.60;;;;;;5015623;28;20061;-54
2023/11/09 12:22:58;;;;;;;5.80;4.85;;;;;;;;;;5050795;28;20021;-54
2023/11/09 12:25:28;;;;;;;13.55;8.35;;;;;;;;;;5050129;28;20040;-54
2023/11/09 12:27:57;;;;;;;6.90;4.75;;;24.00;78.40;;;;;;5050872;28;20113;-53
2023/11/09 12:30:23;;;;;;;4.13;2.70;;;23.90;79.50;;;;;;5051113;28;20037;-54
2023/11/09 12:32:55;;;;;;;5.60;4.18;;;23.50;79.00;;;;;;5015321;28;20116;-54
2023/11/09 12:35:21;;;;;;;;;;;;;;;;;;5051209;28;20032;-54
2023/11/09 12:37:59;;;;;;;5.32;4.25;;;;;;;;;;5050867;28;19905;-54
2023/11/09 12:40:47;;;;;;;4.88;2.80;;;;;;;;;;5008533;28;20120;-55
2023/11/09 12:43:13;;;;;;;6.60;4.72;;;23.20;78.80;;;;;;5008460;28;20200;-54
2023/11/09 12:45:41;;;;;;;4.28;3.50;;;23.00;80.00;;;;;;5008542;28;20541;-54
2023/11/09 12:48:10;;;;;;;6.40;4.50;;;22.90;80.80;;;;;;5008464;28;20030;-54
2023/11/09 12:50:36;;;;;;;5.43;3.95;;;22.70;91.90;;;;;;5008464;28;20060;-54
2023/11/09 12:53:02;;;;;;;7.72;4.95;;;;;;;;;;4959568;28;20065;-54
2023/11/09 12:55:29;;;;;;;3.42;2.45;;;;;;;;;;4960132;28;20093;-54
2023/11/09 12:57:55;;;;;;;4.53;3.05;;;;;;;;;;5008441;28;20033;-54
2023/11/09 13:00:24;;;;;;;8.23;4.35;;;;;;;;;;5008434;28;20038;-54
2023/11/09 13:02:56;;;;;;;6.20;4.70;;;;;;;;;;5008039;28;20091;-54
2023/11/09 13:05:23;;;;;;;6.43;3.45;;;;;;;;;;5008131;28;20136;-54
2023/11/09 13:07:55;;;;;;;5.03;3.70;;;;;;;;;;4992015;28;20501;-54
2023/11/09 13:10:23;;;;;;;;;;;;;;;;;;5008760;28;20060;-54
2023/11/09 13:12:51;;;;;;;6.57;4.80;;;;;;;;;;5048486;28;19905;-54
2023/11/09 13:17:56;;;;;;;10.25;6.63;;;22.50;81.10;;;;;;5049675;28;20037;-55
2023/11/09 13:20:47;;;;;;;9.88;7.20;;;22.10;90.20;;;;;;4997846;28;20048;-54
2023/11/09 13:23:16;;;;;;;8.02;6.15;;;22.30;90.40;;;;;;5047904;28;20550;-54
2023/11/09 13:25:44;;;;;;;6.13;4.43;;;;;;;;;;5049100;28;20033;-54
2023/11/09 13:28:13;;;;;;;9.75;4.28;;;;;;;;;;4997694;28;20439;-54
2023/11/09 13:30:51;;;;;;;8.32;5.32;;;21.30;83.00;;;;;;5050769;28;20025;-54
2023/11/09 13:33:34;;;;;;;5.45;4.28;;;;;;;;;;5053220;28;20033;-54
2023/11/09 13:36:04;;;;;;;7.90;5.78;;;;;;;;;;5050795;28;20024;-54
2023/11/09 13:38:40;;;;;;;8.07;5.10;;;;;;;;;;4991348;28;20034;-54
2023/11/09 13:41:39;;;;;;;6.07;4.13;;;;;;;;;;4990993;28;20039;-58